createdAt,value
2022-11-27T00:00:04.320Z,1011.20
2022-11-27T00:01:04.310Z,1011.20
2022-11-27T00:02:04.361Z,1011.20
2022-11-27T00:03:04.389Z,1011.22
2022-11-27T00:04:04.325Z,1011.20
2022-11-27T00:05:04.269Z,1011.19
2022-11-27T00:06:04.278Z,1011.16
2022-11-27T00:07:04.297Z,1011.13
2022-11-27T00:08:04.252Z,1011.20
2022-11-27T00:09:04.239Z,1011.17
2022-11-27T00:10:04.236Z,1011.17
2022-11-27T00:11:04.229Z,1011.11
2022-11-27T00:12:04.245Z,1011.07
2022-11-27T00:13:04.211Z,1011.12
2022-11-27T00:14:04.416Z,1011.10
2022-11-27T00:15:04.410Z,1011.14
2022-11-27T00:16:04.470Z,1011.08
2022-11-27T00:17:04.425Z,1011.10
2022-11-27T00:18:04.442Z,1011.04
2022-11-27T00:19:04.336Z,1010.99
2022-11-27T00:20:04.345Z,1011.01
2022-11-27T00:21:04.258Z,1010.98
2022-11-27T00:22:04.254Z,1010.98
2022-11-27T00:23:04.175Z,1010.95
2022-11-27T00:24:04.120Z,1010.98
2022-11-27T00:25:04.115Z,1010.95
2022-11-27T00:26:04.110Z,1010.96
2022-11-27T00:27:04.128Z,1010.96
2022-11-27T00:28:04.078Z,1010.91
2022-11-27T00:29:04.077Z,1010.91
2022-11-27T00:30:04.082Z,1010.88
2022-11-27T00:31:04.136Z,1010.86
2022-11-27T00:32:04.078Z,1010.87
2022-11-27T00:33:04.047Z,1010.85
2022-11-27T00:34:04.033Z,1010.87
2022-11-27T00:35:04.039Z,1010.80
2022-11-27T00:36:04.023Z,1010.83
2022-11-27T00:37:04.049Z,1010.78
2022-11-27T00:38:04.020Z,1010.79
2022-11-27T00:39:03.993Z,1010.72
2022-11-27T00:40:04.000Z,1010.75
2022-11-27T00:41:03.978Z,1010.71
2022-11-27T00:42:04.019Z,1010.68
2022-11-27T00:43:03.964Z,1010.76
2022-11-27T00:44:03.962Z,1010.76
2022-11-27T00:45:03.954Z,1010.76
2022-11-27T00:46:03.951Z,1010.75
2022-11-27T00:47:04.031Z,1010.74
2022-11-27T00:48:03.919Z,1010.78
2022-11-27T00:49:03.919Z,1010.72
2022-11-27T00:50:04.016Z,1010.79
2022-11-27T00:51:03.898Z,1010.70
2022-11-27T00:52:03.921Z,1010.72
2022-11-27T00:53:03.885Z,1010.74
2022-11-27T00:54:03.876Z,1010.74
2022-11-27T00:55:03.866Z,1010.73
2022-11-27T00:56:03.856Z,1010.72
2022-11-27T00:57:03.884Z,1010.73
2022-11-27T00:58:03.845Z,1010.71
2022-11-27T00:59:03.848Z,1010.65
2022-11-27T01:00:03.826Z,1010.70
2022-11-27T01:01:03.810Z,1010.66
2022-11-27T01:02:03.936Z,1010.64
2022-11-27T01:03:03.862Z,1010.68
2022-11-27T01:04:03.799Z,1010.65
2022-11-27T01:05:03.787Z,1010.70
2022-11-27T01:06:03.780Z,1010.73
2022-11-27T01:07:03.799Z,1010.68
2022-11-27T01:08:44.240Z,1010.67
2022-11-27T01:09:03.766Z,1010.75
2022-11-27T01:10:03.755Z,1010.67
2022-11-27T01:11:03.742Z,1010.71
2022-11-27T01:12:03.764Z,1010.63
2022-11-27T01:13:03.726Z,1010.61
2022-11-27T01:14:03.722Z,1010.61
2022-11-27T01:15:03.711Z,1010.54
2022-11-27T01:16:03.789Z,1010.47
2022-11-27T01:17:03.719Z,1010.49
2022-11-27T01:18:03.696Z,1010.53
2022-11-27T01:19:03.678Z,1010.55
2022-11-27T01:20:03.666Z,1010.55
2022-11-27T01:21:03.666Z,1010.50
2022-11-27T01:22:03.681Z,1010.52
2022-11-27T01:23:03.636Z,1010.52
2022-11-27T01:24:03.630Z,1010.50
2022-11-27T01:25:03.614Z,1010.49
2022-11-27T01:26:03.617Z,1010.48
2022-11-27T01:27:03.638Z,1010.45
2022-11-27T01:28:03.591Z,1010.44
2022-11-27T01:29:03.587Z,1010.41
2022-11-27T01:30:03.581Z,1010.41
2022-11-27T01:31:03.591Z,1010.41
2022-11-27T01:32:03.581Z,1010.38
2022-11-27T01:33:03.585Z,1010.37
2022-11-27T01:34:03.557Z,1010.36
2022-11-27T01:35:03.545Z,1010.33
2022-11-27T01:36:03.531Z,1010.28
2022-11-27T01:37:03.524Z,1010.31
2022-11-27T01:38:03.534Z,1010.29
2022-11-27T01:39:04.545Z,1010.32
2022-11-27T01:40:03.498Z,1010.27
2022-11-27T01:41:03.491Z,1010.28
2022-11-27T01:42:03.487Z,1010.30
2022-11-27T01:43:03.501Z,1010.30
2022-11-27T01:44:03.471Z,1010.31
2022-11-27T01:45:03.469Z,1010.24
2022-11-27T01:46:03.477Z,1010.23
2022-11-27T01:47:03.448Z,1010.32
2022-11-27T01:48:03.465Z,1010.32
2022-11-27T01:49:03.429Z,1010.28
2022-11-27T01:50:03.412Z,1010.33
2022-11-27T01:51:03.409Z,1010.24
2022-11-27T01:52:03.411Z,1010.26
2022-11-27T01:53:03.428Z,1010.26
2022-11-27T01:54:03.394Z,1010.28
2022-11-27T01:55:03.371Z,1010.32
2022-11-27T01:56:03.372Z,1010.24
2022-11-27T01:57:03.355Z,1010.22
2022-11-27T01:58:03.384Z,1010.30
2022-11-27T01:59:03.341Z,1010.23
2022-11-27T02:00:03.335Z,1010.25
2022-11-27T02:01:03.328Z,1010.30
2022-11-27T02:02:03.425Z,1010.24
2022-11-27T02:03:03.457Z,1010.26
2022-11-27T02:04:03.311Z,1010.20
2022-11-27T02:05:03.302Z,1010.17
2022-11-27T02:06:03.288Z,1010.25
2022-11-27T02:07:03.277Z,1010.24
2022-11-27T02:08:03.296Z,1010.23
2022-11-27T02:09:03.261Z,1010.18
2022-11-27T02:10:03.244Z,1010.20
2022-11-27T02:11:03.251Z,1010.22
2022-11-27T02:12:03.254Z,1010.18
2022-11-27T02:13:03.255Z,1010.22
2022-11-27T02:14:03.213Z,1010.19
2022-11-27T02:15:03.205Z,1010.26
2022-11-27T02:16:03.247Z,1010.27
2022-11-27T02:17:03.194Z,1010.28
2022-11-27T02:18:03.225Z,1010.22
2022-11-27T02:19:03.177Z,1010.17
2022-11-27T02:20:03.184Z,1010.17
2022-11-27T02:21:03.163Z,1010.22
2022-11-27T02:22:03.150Z,1010.20
2022-11-27T02:23:03.177Z,1010.20
2022-11-27T02:24:03.153Z,1010.15
2022-11-27T02:25:03.129Z,1010.13
2022-11-27T02:26:03.118Z,1010.11
2022-11-27T02:27:03.117Z,1010.12
2022-11-27T02:28:03.103Z,1010.09
2022-11-27T02:29:03.131Z,1010.08
2022-11-27T02:30:03.082Z,1010.08
2022-11-27T02:31:03.106Z,1010.06
2022-11-27T02:32:03.068Z,1010.08
2022-11-27T02:33:03.054Z,1010.00
2022-11-27T02:34:03.086Z,1010.05
2022-11-27T02:35:03.044Z,1009.97
2022-11-27T02:36:03.032Z,1009.97
2022-11-27T02:37:03.018Z,1009.94
2022-11-27T02:38:03.019Z,1009.93
2022-11-27T02:39:03.050Z,1009.93
2022-11-27T02:40:02.992Z,1009.89
2022-11-27T02:41:02.988Z,1009.93
2022-11-27T02:42:03.061Z,1009.94
2022-11-27T02:43:02.971Z,1009.94
2022-11-27T02:44:02.999Z,1009.95
2022-11-27T02:45:02.963Z,1009.96
2022-11-27T02:46:02.976Z,1009.98
2022-11-27T02:47:03.942Z,1009.99
2022-11-27T02:48:02.932Z,1009.95
2022-11-27T02:49:02.954Z,1010.01
2022-11-27T02:50:02.928Z,1009.96
2022-11-27T02:51:02.908Z,1009.96
2022-11-27T02:52:23.250Z,1009.96
2022-11-27T02:53:02.900Z,1009.96
2022-11-27T02:54:02.904Z,1009.95
2022-11-27T02:55:02.874Z,1009.98
2022-11-27T02:56:02.862Z,1009.99
2022-11-27T02:57:02.858Z,1010.04
2022-11-27T02:58:08.768Z,1010.04
2022-11-27T02:59:03.936Z,1010.04
2022-11-27T03:00:02.851Z,1010.08
2022-11-27T03:01:02.825Z,1010.13
2022-11-27T03:02:02.907Z,1010.09
2022-11-27T03:03:02.881Z,1010.07
2022-11-27T03:04:02.819Z,1010.07
2022-11-27T03:05:02.790Z,1010.08
2022-11-27T03:06:02.780Z,1010.10
2022-11-27T03:07:02.771Z,1010.05
2022-11-27T03:08:02.770Z,1010.06
2022-11-27T03:09:02.779Z,1010.07
2022-11-27T03:10:02.739Z,1010.12
2022-11-27T03:11:02.741Z,1010.07
2022-11-27T03:12:02.731Z,1010.11
2022-11-27T03:13:02.716Z,1010.09
2022-11-27T03:14:02.747Z,1010.15
2022-11-27T03:15:02.781Z,1010.13
2022-11-27T03:16:02.747Z,1010.07
2022-11-27T03:17:02.688Z,1010.12
2022-11-27T03:18:02.693Z,1010.05
2022-11-27T03:19:02.698Z,1010.05
2022-11-27T03:20:02.667Z,1010.04
2022-11-27T03:21:02.659Z,1010.02
2022-11-27T03:22:02.635Z,1010.03
2022-11-27T03:23:03.639Z,1010.08
2022-11-27T03:24:02.659Z,1010.07
2022-11-27T03:25:02.812Z,1010.09
2022-11-27T03:26:02.610Z,1010.08
2022-11-27T03:27:02.592Z,1010.08
2022-11-27T03:28:03.599Z,1010.07
2022-11-27T03:29:02.585Z,1010.03
2022-11-27T03:30:02.614Z,1010.02
2022-11-27T03:31:02.671Z,1010.05
2022-11-27T03:32:02.564Z,1010.05
2022-11-27T03:33:02.556Z,1010.05
2022-11-27T03:34:02.565Z,1010.01
2022-11-27T03:35:02.565Z,1009.99
2022-11-27T03:36:02.531Z,1009.98
2022-11-27T03:37:02.530Z,1009.88
2022-11-27T03:38:02.519Z,1009.91
2022-11-27T03:39:02.500Z,1009.92
2022-11-27T03:40:02.533Z,1009.93
2022-11-27T03:41:02.492Z,1009.92
2022-11-27T03:42:02.475Z,1009.89
2022-11-27T03:43:02.479Z,1009.86
2022-11-27T03:44:02.459Z,1009.85
2022-11-27T03:45:02.487Z,1009.92
2022-11-27T03:46:02.517Z,1009.86
2022-11-27T03:47:02.522Z,1009.87
2022-11-27T03:48:02.429Z,1009.83
2022-11-27T03:49:02.423Z,1009.83
2022-11-27T03:50:02.444Z,1009.87
2022-11-27T03:51:02.415Z,1009.83
2022-11-27T03:52:02.391Z,1009.83
2022-11-27T03:53:02.385Z,1009.88
2022-11-27T03:54:02.381Z,1009.86
2022-11-27T03:55:02.414Z,1009.84
2022-11-27T03:56:06.757Z,1009.87
2022-11-27T03:57:04.354Z,1009.85
2022-11-27T03:58:02.348Z,1009.89
2022-11-27T03:59:02.340Z,1009.87
2022-11-27T04:00:02.368Z,1009.91
2022-11-27T04:01:17.613Z,1009.90
2022-11-27T04:02:02.349Z,1009.88
2022-11-27T04:03:02.387Z,1009.93
2022-11-27T04:04:02.339Z,1009.87
2022-11-27T04:05:02.323Z,1009.85
2022-11-27T04:06:02.307Z,1009.77
2022-11-27T04:07:02.294Z,1009.83
2022-11-27T04:08:02.264Z,1009.82
2022-11-27T04:09:02.257Z,1009.83
2022-11-27T04:10:02.285Z,1009.81
2022-11-27T04:11:02.260Z,1009.80
2022-11-27T04:12:02.243Z,1009.83
2022-11-27T04:13:02.233Z,1009.76
2022-11-27T04:14:02.217Z,1009.77
2022-11-27T04:15:02.213Z,1009.81
2022-11-27T04:16:02.378Z,1009.83
2022-11-27T04:17:02.200Z,1009.75
2022-11-27T04:18:02.185Z,1009.80
2022-11-27T04:19:02.256Z,1009.81
2022-11-27T04:20:02.165Z,1009.75
2022-11-27T04:21:02.194Z,1009.83
2022-11-27T04:22:02.158Z,1009.80
2022-11-27T04:23:02.147Z,1009.74
2022-11-27T04:24:02.145Z,1009.74
2022-11-27T04:25:02.124Z,1009.75
2022-11-27T04:26:02.164Z,1009.82
2022-11-27T04:27:02.121Z,1009.73
2022-11-27T04:28:02.105Z,1009.80
2022-11-27T04:29:02.093Z,1009.78
2022-11-27T04:30:02.088Z,1009.80
2022-11-27T04:31:02.160Z,1009.78
2022-11-27T04:32:02.073Z,1009.87
2022-11-27T04:33:02.067Z,1009.79
2022-11-27T04:34:02.054Z,1009.82
2022-11-27T04:35:02.125Z,1009.85
2022-11-27T04:36:02.071Z,1009.83
2022-11-27T04:37:02.025Z,1009.84
2022-11-27T04:38:02.026Z,1009.83
2022-11-27T04:39:02.023Z,1009.76
2022-11-27T04:40:02.016Z,1009.74
2022-11-27T04:41:02.020Z,1009.79
2022-11-27T04:42:01.995Z,1009.76
2022-11-27T04:43:01.981Z,1009.75
2022-11-27T04:44:01.977Z,1009.70
2022-11-27T04:45:01.973Z,1009.71
2022-11-27T04:46:01.983Z,1009.64
2022-11-27T04:47:01.997Z,1009.65
2022-11-27T04:48:01.949Z,1009.65
2022-11-27T04:49:01.919Z,1009.60
2022-11-27T04:50:02.928Z,1009.59
2022-11-27T04:51:02.100Z,1009.60
2022-11-27T04:52:01.908Z,1009.55
2022-11-27T04:53:01.898Z,1009.46
2022-11-27T04:54:17.592Z,1009.51
2022-11-27T04:55:01.870Z,1009.45
2022-11-27T04:56:02.897Z,1009.43
2022-11-27T04:57:01.869Z,1009.46
2022-11-27T04:58:01.856Z,1009.50
2022-11-27T04:59:01.855Z,1009.43
2022-11-27T05:00:01.839Z,1009.40
2022-11-27T05:01:01.943Z,1009.43
2022-11-27T05:02:01.825Z,1009.40
2022-11-27T05:03:01.873Z,1009.37
2022-11-27T05:04:01.819Z,1009.42
2022-11-27T05:05:01.822Z,1009.37
2022-11-27T05:06:01.826Z,1009.38
2022-11-27T05:07:01.854Z,1009.38
2022-11-27T05:08:02.814Z,1009.37
2022-11-27T05:09:01.769Z,1009.32
2022-11-27T05:10:01.755Z,1009.32
2022-11-27T05:11:02.751Z,1009.32
2022-11-27T05:12:01.738Z,1009.32
2022-11-27T05:13:01.764Z,1009.35
2022-11-27T05:14:01.723Z,1009.34
2022-11-27T05:15:04.436Z,1009.37
2022-11-27T05:16:02.778Z,1009.31
2022-11-27T05:17:01.699Z,1009.33
2022-11-27T05:18:01.724Z,1009.27
2022-11-27T05:19:01.698Z,1009.28
2022-11-27T05:20:01.688Z,1009.22
2022-11-27T05:21:01.663Z,1009.21
2022-11-27T05:22:01.650Z,1009.16
2022-11-27T05:23:01.877Z,1009.15
2022-11-27T05:24:01.631Z,1009.14
2022-11-27T05:25:01.636Z,1009.14
2022-11-27T05:26:01.615Z,1009.13
2022-11-27T05:27:01.612Z,1009.06
2022-11-27T05:28:01.622Z,1009.09
2022-11-27T05:29:02.601Z,1009.04
2022-11-27T05:30:01.584Z,1009.11
2022-11-27T05:31:01.601Z,1009.14
2022-11-27T05:32:01.578Z,1009.04
2022-11-27T05:33:01.837Z,1008.97
2022-11-27T05:34:01.556Z,1009.07
2022-11-27T05:35:01.547Z,1009.06
2022-11-27T05:36:01.528Z,1009.08
2022-11-27T05:37:01.526Z,1009.04
2022-11-27T05:38:01.551Z,1009.09
2022-11-27T05:39:01.585Z,1009.11
2022-11-27T05:40:01.499Z,1009.09
2022-11-27T05:41:01.490Z,1009.08
2022-11-27T05:42:01.478Z,1009.06
2022-11-27T05:43:01.501Z,1009.12
2022-11-27T05:44:01.473Z,1009.06
2022-11-27T05:45:01.462Z,1009.08
2022-11-27T05:46:01.447Z,1009.07
2022-11-27T05:47:01.522Z,1009.08
2022-11-27T05:48:01.458Z,1009.15
2022-11-27T05:49:01.428Z,1009.17
2022-11-27T05:50:01.408Z,1009.10
2022-11-27T05:51:01.402Z,1009.11
2022-11-27T05:52:01.398Z,1009.09
2022-11-27T05:53:21.997Z,1009.09
2022-11-27T05:54:01.395Z,1009.15
2022-11-27T05:55:01.441Z,1009.16
2022-11-27T05:56:01.370Z,1009.07
2022-11-27T05:57:01.354Z,1009.12
2022-11-27T05:58:01.370Z,1009.14
2022-11-27T05:59:01.337Z,1009.09
2022-11-27T06:00:01.326Z,1009.04
2022-11-27T06:01:01.321Z,1009.04
2022-11-27T06:02:01.396Z,1009.05
2022-11-27T06:03:01.419Z,1009.02
2022-11-27T06:04:02.340Z,1009.04
2022-11-27T06:05:01.289Z,1009.00
2022-11-27T06:06:01.279Z,1009.04
2022-11-27T06:07:01.275Z,1008.96
2022-11-27T06:08:01.281Z,1008.93
2022-11-27T06:09:01.280Z,1008.89
2022-11-27T06:10:01.250Z,1008.87
2022-11-27T06:11:01.309Z,1008.86
2022-11-27T06:12:01.231Z,1008.86
2022-11-27T06:13:01.218Z,1008.93
2022-11-27T06:14:01.246Z,1008.90
2022-11-27T06:15:01.204Z,1008.92
2022-11-27T06:16:01.236Z,1008.96
2022-11-27T06:17:01.185Z,1008.98
2022-11-27T06:18:01.178Z,1008.94
2022-11-27T06:19:01.201Z,1008.99
2022-11-27T06:20:01.167Z,1008.96
2022-11-27T06:21:01.158Z,1008.97
2022-11-27T06:22:01.148Z,1009.02
2022-11-27T06:23:01.132Z,1008.94
2022-11-27T06:24:02.407Z,1008.98
2022-11-27T06:25:01.115Z,1008.93
2022-11-27T06:26:01.117Z,1008.98
2022-11-27T06:27:01.171Z,1008.95
2022-11-27T06:28:01.092Z,1008.96
2022-11-27T06:29:01.107Z,1008.95
2022-11-27T06:30:01.074Z,1009.02
2022-11-27T06:31:41.714Z,1009.00
2022-11-27T06:32:01.108Z,1009.01
2022-11-27T06:33:01.052Z,1008.99
2022-11-27T06:34:01.078Z,1008.97
2022-11-27T06:35:01.045Z,1008.96
2022-11-27T06:36:01.025Z,1008.95
2022-11-27T06:37:01.018Z,1008.96
2022-11-27T06:38:01.005Z,1008.95
2022-11-27T06:39:01.027Z,1008.93
2022-11-27T06:40:00.998Z,1008.85
2022-11-27T06:41:00.988Z,1008.93
2022-11-27T06:42:01.983Z,1008.93
2022-11-27T06:43:01.042Z,1008.93
2022-11-27T06:44:00.988Z,1008.92
2022-11-27T06:45:00.953Z,1008.96
2022-11-27T06:46:00.996Z,1009.02
2022-11-27T06:47:00.935Z,1008.96
2022-11-27T06:48:00.934Z,1008.94
2022-11-27T06:49:00.953Z,1008.94
2022-11-27T06:50:00.914Z,1008.96
2022-11-27T06:51:00.898Z,1008.97
2022-11-27T06:52:00.889Z,1008.91
2022-11-27T06:53:00.883Z,1008.92
2022-11-27T06:54:25.197Z,1008.88
2022-11-27T06:55:00.873Z,1008.89
2022-11-27T06:56:00.869Z,1008.88
2022-11-27T06:57:00.855Z,1008.89
2022-11-27T06:58:00.835Z,1008.84
2022-11-27T06:59:00.972Z,1008.81
2022-11-27T07:00:00.822Z,1008.84
2022-11-27T07:01:00.861Z,1008.84
2022-11-27T07:02:00.926Z,1008.80
2022-11-27T07:03:00.796Z,1008.87
2022-11-27T07:04:00.811Z,1008.85
2022-11-27T07:05:00.774Z,1008.79
2022-11-27T07:06:00.772Z,1008.81
2022-11-27T07:07:00.761Z,1008.81
2022-11-27T07:08:00.757Z,1008.76
2022-11-27T07:09:00.784Z,1008.76
2022-11-27T07:10:00.730Z,1008.63
2022-11-27T07:11:00.723Z,1008.62
2022-11-27T07:12:34.827Z,1008.64
2022-11-27T07:13:00.718Z,1008.62
2022-11-27T07:14:00.734Z,1008.65
2022-11-27T07:15:04.194Z,1008.58
2022-11-27T07:16:01.762Z,1008.65
2022-11-27T07:17:00.676Z,1008.70
2022-11-27T07:18:00.675Z,1008.67
2022-11-27T07:19:00.692Z,1008.70
2022-11-27T07:20:00.655Z,1008.74
2022-11-27T07:21:00.640Z,1008.68
2022-11-27T07:22:08.613Z,1008.77
2022-11-27T07:23:00.622Z,1008.74
2022-11-27T07:24:00.656Z,1008.71
2022-11-27T07:25:00.605Z,1008.68
2022-11-27T07:26:00.604Z,1008.71
2022-11-27T07:27:00.588Z,1008.71
2022-11-27T07:28:00.580Z,1008.69
2022-11-27T07:29:00.609Z,1008.60
2022-11-27T07:30:00.571Z,1008.69
2022-11-27T07:31:00.646Z,1008.68
2022-11-27T07:32:00.622Z,1008.66
2022-11-27T07:33:00.548Z,1008.64
2022-11-27T07:34:00.568Z,1008.66
2022-11-27T07:35:00.530Z,1008.60
2022-11-27T07:36:00.521Z,1008.58
2022-11-27T07:37:00.499Z,1008.60
2022-11-27T07:38:00.492Z,1008.51
2022-11-27T07:39:00.522Z,1008.56
2022-11-27T07:40:03.240Z,1008.56
2022-11-27T07:41:01.479Z,1008.56
2022-11-27T07:42:23.206Z,1008.58
2022-11-27T07:43:01.622Z,1008.58
2022-11-27T07:44:00.483Z,1008.61
2022-11-27T07:45:00.440Z,1008.51
2022-11-27T07:46:00.460Z,1008.50
2022-11-27T07:47:00.487Z,1008.42
2022-11-27T07:48:00.406Z,1008.46
2022-11-27T07:49:01.442Z,1008.45
2022-11-27T07:50:00.506Z,1008.33
2022-11-27T07:51:00.403Z,1008.24
2022-11-27T07:52:00.382Z,1008.27
2022-11-27T07:53:00.364Z,1008.25
2022-11-27T07:54:00.399Z,1008.23
2022-11-27T07:55:00.350Z,1008.22
2022-11-27T07:56:01.351Z,1008.19
2022-11-27T07:57:00.335Z,1008.15
2022-11-27T07:58:00.333Z,1008.16
2022-11-27T07:59:00.351Z,1008.14
2022-11-27T08:00:00.317Z,1008.19
2022-11-27T08:01:00.369Z,1008.14
2022-11-27T08:02:00.295Z,1008.12
2022-11-27T08:03:00.370Z,1008.21
2022-11-27T08:04:00.316Z,1008.20
2022-11-27T08:05:00.379Z,1008.16
2022-11-27T08:06:00.278Z,1008.21
2022-11-27T08:07:00.279Z,1008.12
2022-11-27T08:08:00.332Z,1008.10
2022-11-27T08:09:00.281Z,1008.16
2022-11-27T08:10:00.233Z,1008.16
2022-11-27T08:11:00.224Z,1008.06
2022-11-27T08:12:00.213Z,1008.03
2022-11-27T08:13:00.202Z,1008.05
2022-11-27T08:14:00.262Z,1008.01
2022-11-27T08:15:00.211Z,1008.08
2022-11-27T08:16:00.256Z,1008.03
2022-11-27T08:17:00.163Z,1008.03
2022-11-27T08:18:00.160Z,1007.97
2022-11-27T08:19:00.424Z,1007.95
2022-11-27T08:20:00.147Z,1008.01
2022-11-27T08:21:00.138Z,1008.04
2022-11-27T08:22:00.121Z,1007.95
2022-11-27T08:23:03.046Z,1008.00
2022-11-27T08:24:01.145Z,1007.96
2022-11-27T08:25:00.104Z,1007.96
2022-11-27T08:26:00.096Z,1007.95
2022-11-27T08:27:00.100Z,1007.93
2022-11-27T08:28:00.079Z,1007.95
2022-11-27T08:29:00.111Z,1007.97
2022-11-27T08:30:00.065Z,1008.00
2022-11-27T08:31:00.051Z,1007.91
2022-11-27T08:32:00.092Z,1008.00
2022-11-27T08:33:00.035Z,1008.02
2022-11-27T08:34:00.058Z,1007.91
2022-11-27T08:35:00.092Z,1008.06
2022-11-27T08:36:00.010Z,1008.05
2022-11-27T08:37:00.001Z,1008.07
2022-11-27T08:37:59.991Z,1008.04
2022-11-27T08:38:59.989Z,1008.07
2022-11-27T08:40:00.003Z,1008.01
2022-11-27T08:40:59.967Z,1007.97
2022-11-27T08:41:59.956Z,1008.04
2022-11-27T08:42:59.948Z,1008.06
2022-11-27T08:43:59.943Z,1007.99
2022-11-27T08:45:00.957Z,1008.01
2022-11-27T08:45:59.990Z,1007.98
2022-11-27T08:46:59.909Z,1007.95
2022-11-27T08:47:59.905Z,1007.93
2022-11-27T08:48:59.893Z,1007.96
2022-11-27T08:49:59.924Z,1008.00
2022-11-27T08:50:59.944Z,1007.98
2022-11-27T08:51:59.868Z,1007.91
2022-11-27T08:52:59.863Z,1007.93
2022-11-27T08:53:59.849Z,1008.00
2022-11-27T08:54:59.890Z,1007.87
2022-11-27T08:55:59.836Z,1007.89
2022-11-27T08:56:59.820Z,1007.91
2022-11-27T08:57:59.821Z,1007.98
2022-11-27T08:58:59.816Z,1007.94
2022-11-27T08:59:59.832Z,1007.97
2022-11-27T09:00:59.819Z,1007.96
2022-11-27T09:02:00.788Z,1008.02
2022-11-27T09:02:59.771Z,1007.97
2022-11-27T09:03:59.801Z,1007.93
2022-11-27T09:04:59.790Z,1007.91
2022-11-27T09:05:59.744Z,1007.81
2022-11-27T09:06:59.816Z,1007.71
2022-11-27T09:07:59.783Z,1007.72
2022-11-27T09:08:59.722Z,1007.67
2022-11-27T09:09:59.740Z,1007.60
2022-11-27T09:10:59.712Z,1007.60
2022-11-27T09:11:59.695Z,1007.57
2022-11-27T09:12:59.700Z,1007.47
2022-11-27T09:13:59.689Z,1007.47
2022-11-27T09:14:59.705Z,1007.40
2022-11-27T09:15:59.666Z,1007.44
2022-11-27T09:16:59.756Z,1007.56
2022-11-27T09:17:59.668Z,1007.48
2022-11-27T09:18:59.643Z,1007.41
2022-11-27T09:19:59.669Z,1007.33
2022-11-27T09:20:59.621Z,1007.26
2022-11-27T09:21:59.632Z,1007.29
2022-11-27T09:22:59.687Z,1007.19
2022-11-27T09:23:59.606Z,1007.28
2022-11-27T09:24:59.624Z,1007.24
2022-11-27T09:25:59.585Z,1007.21
2022-11-27T09:26:59.592Z,1007.26
2022-11-27T09:27:59.582Z,1007.24
2022-11-27T09:28:59.577Z,1007.17
2022-11-27T09:29:59.587Z,1007.24
2022-11-27T09:30:59.546Z,1007.15
2022-11-27T09:31:59.589Z,1007.17
2022-11-27T09:32:59.529Z,1007.11
2022-11-27T09:33:59.526Z,1007.08
2022-11-27T09:34:59.564Z,1007.09
2022-11-27T09:35:59.507Z,1007.05
2022-11-27T09:36:59.494Z,1007.06
2022-11-27T09:37:59.486Z,1006.95
2022-11-27T09:38:59.556Z,1006.98
2022-11-27T09:39:59.497Z,1007.03
2022-11-27T09:41:03.071Z,1007.01
2022-11-27T09:42:00.449Z,1006.97
2022-11-27T09:42:59.459Z,1006.97
2022-11-27T09:43:59.438Z,1006.87
2022-11-27T09:44:59.452Z,1006.91
2022-11-27T09:45:59.462Z,1006.93
2022-11-27T09:46:59.413Z,1006.90
2022-11-27T09:47:59.400Z,1006.94
2022-11-27T09:48:59.403Z,1006.95
2022-11-27T09:49:59.414Z,1006.92
2022-11-27T09:50:59.377Z,1006.98
2022-11-27T09:51:59.368Z,1007.08
2022-11-27T09:52:59.366Z,1007.03
2022-11-27T09:53:59.378Z,1007.05
2022-11-27T09:54:59.439Z,1007.11
2022-11-27T09:55:59.334Z,1007.16
2022-11-27T09:56:59.314Z,1007.14
2022-11-27T09:57:59.325Z,1007.11
2022-11-27T09:58:59.314Z,1007.11
2022-11-27T09:59:59.325Z,1007.16
2022-11-27T10:00:59.288Z,1007.06
2022-11-27T10:01:59.389Z,1007.03
2022-11-27T10:02:59.322Z,1007.00
2022-11-27T10:03:59.281Z,1006.92
2022-11-27T10:05:13.459Z,1006.89
2022-11-27T10:06:01.261Z,1006.86
2022-11-27T10:06:59.239Z,1006.77
2022-11-27T10:08:03.424Z,1006.72
2022-11-27T10:09:01.227Z,1006.66
2022-11-27T10:09:59.243Z,1006.77
2022-11-27T10:10:59.279Z,1006.71
2022-11-27T10:11:59.198Z,1006.74
2022-11-27T10:12:59.409Z,1006.78
2022-11-27T10:13:59.196Z,1006.77
2022-11-27T10:14:59.214Z,1006.69
2022-11-27T10:15:59.172Z,1006.69
2022-11-27T10:16:59.220Z,1006.63
2022-11-27T10:17:59.157Z,1006.62
2022-11-27T10:18:59.145Z,1006.50
2022-11-27T10:19:59.175Z,1006.52
2022-11-27T10:20:59.139Z,1006.42
2022-11-27T10:21:59.128Z,1006.46
2022-11-27T10:22:59.118Z,1006.43
2022-11-27T10:23:59.208Z,1006.38
2022-11-27T10:24:59.128Z,1006.41
2022-11-27T10:25:59.118Z,1006.49
2022-11-27T10:26:59.158Z,1006.39
2022-11-27T10:27:59.073Z,1006.32
2022-11-27T10:28:59.072Z,1006.30
2022-11-27T10:29:59.058Z,1006.31
2022-11-27T10:30:59.074Z,1006.17
2022-11-27T10:31:59.097Z,1006.20
2022-11-27T10:32:59.148Z,1006.25
2022-11-27T10:33:59.034Z,1006.15
2022-11-27T10:34:59.027Z,1006.13
2022-11-27T10:35:59.061Z,1006.17
2022-11-27T10:36:59.003Z,1006.12
2022-11-27T10:38:05.068Z,1006.03
2022-11-27T10:39:00.990Z,1006.11
2022-11-27T10:39:58.971Z,1006.11
2022-11-27T10:40:58.986Z,1006.05
2022-11-27T10:41:59.954Z,1006.07
2022-11-27T10:42:59.020Z,1006.02
2022-11-27T10:44:01.242Z,1006.02
2022-11-27T10:44:58.946Z,1006.06
2022-11-27T10:45:59.007Z,1006.07
2022-11-27T10:46:58.918Z,1006.07
2022-11-27T10:47:58.917Z,1005.99
2022-11-27T10:48:58.899Z,1005.97
2022-11-27T10:49:58.889Z,1006.07
2022-11-27T10:50:58.916Z,1005.99
2022-11-27T10:51:58.874Z,1005.95
2022-11-27T10:52:58.871Z,1006.00
2022-11-27T10:53:58.864Z,1005.96
2022-11-27T10:54:58.863Z,1005.93
2022-11-27T10:55:58.876Z,1005.90
2022-11-27T10:56:58.842Z,1005.88
2022-11-27T10:57:58.831Z,1005.90
2022-11-27T10:58:58.907Z,1005.91
2022-11-27T10:59:58.812Z,1005.97
2022-11-27T11:00:58.863Z,1006.00
2022-11-27T11:01:58.826Z,1005.93
2022-11-27T11:02:58.790Z,1005.94
2022-11-27T11:03:58.778Z,1005.90
2022-11-27T11:05:24.057Z,1005.94
2022-11-27T11:07:00.765Z,1005.91
2022-11-27T11:07:58.840Z,1005.88
2022-11-27T11:09:01.465Z,1005.79
2022-11-27T11:09:59.734Z,1005.75
2022-11-27T11:10:58.757Z,1005.82
2022-11-27T11:11:58.716Z,1005.82
2022-11-27T11:12:58.712Z,1005.82
2022-11-27T11:13:58.700Z,1005.85
2022-11-27T11:14:58.786Z,1005.81
2022-11-27T11:15:58.682Z,1005.84
2022-11-27T11:16:58.744Z,1005.87
2022-11-27T11:17:58.662Z,1005.83
2022-11-27T11:18:58.657Z,1005.83
2022-11-27T11:19:58.648Z,1005.83
2022-11-27T11:20:58.640Z,1005.84
2022-11-27T11:21:58.656Z,1005.79
2022-11-27T11:22:58.624Z,1005.77
2022-11-27T11:23:58.617Z,1005.73
2022-11-27T11:24:58.634Z,1005.64
2022-11-27T11:25:58.597Z,1005.65
2022-11-27T11:26:58.622Z,1005.64
2022-11-27T11:27:58.580Z,1005.55
2022-11-27T11:28:58.576Z,1005.54
2022-11-27T11:29:58.567Z,1005.53
2022-11-27T11:30:58.626Z,1005.48
2022-11-27T11:31:58.604Z,1005.51
2022-11-27T11:32:58.546Z,1005.50
2022-11-27T11:33:58.533Z,1005.52
2022-11-27T11:35:01.227Z,1005.55
2022-11-27T11:35:59.518Z,1005.50
2022-11-27T11:36:58.556Z,1005.40
2022-11-27T11:37:58.493Z,1005.42
2022-11-27T11:38:58.496Z,1005.33
2022-11-27T11:39:58.472Z,1005.34
2022-11-27T11:40:59.468Z,1005.34
2022-11-27T11:41:58.497Z,1005.28
2022-11-27T11:42:58.441Z,1005.28
2022-11-27T11:43:59.448Z,1005.30
2022-11-27T11:44:58.439Z,1005.28
2022-11-27T11:45:58.464Z,1005.12
2022-11-27T11:46:58.520Z,1005.11
2022-11-27T11:47:58.428Z,1005.17
2022-11-27T11:48:58.404Z,1005.13
2022-11-27T11:49:58.395Z,1005.16
2022-11-27T11:50:59.397Z,1005.12
2022-11-27T11:51:58.410Z,1005.10
2022-11-27T11:52:58.374Z,1005.05
2022-11-27T11:53:58.367Z,1005.12
2022-11-27T11:54:58.366Z,1005.10
2022-11-27T11:55:58.350Z,1005.08
2022-11-27T11:56:58.434Z,1005.14
2022-11-27T11:57:58.335Z,1005.19
2022-11-27T11:58:58.330Z,1005.10
2022-11-27T11:59:58.300Z,1005.08
2022-11-27T12:01:25.360Z,1005.10
2022-11-27T12:02:00.459Z,1005.11
2022-11-27T12:02:58.294Z,1005.08
2022-11-27T12:03:58.324Z,1005.11
2022-11-27T12:04:58.302Z,1005.08
2022-11-27T12:05:58.267Z,1005.07